createdAt,value
2023-04-12T00:00:10.946Z,90.00
2023-04-12T00:02:14.467Z,90.09
2023-04-12T00:04:18.271Z,89.93
2023-04-12T00:06:25.433Z,89.98
2023-04-12T00:08:33.612Z,89.96
2023-04-12T00:10:37.071Z,90.05
2023-04-12T00:12:42.026Z,89.75
2023-04-12T00:14:45.510Z,89.86
2023-04-12T00:16:49.536Z,89.84
2023-04-12T00:18:53.113Z,89.68
2023-04-12T00:20:57.016Z,89.81
2023-04-12T00:23:00.511Z,89.72
2023-04-12T00:25:03.899Z,89.79
2023-04-12T00:27:07.298Z,89.67
2023-04-12T00:29:12.548Z,89.51
2023-04-12T00:31:15.980Z,89.41
2023-04-12T00:33:19.272Z,89.54
2023-04-12T00:35:22.636Z,89.49
2023-04-12T00:37:25.988Z,89.42
2023-04-12T00:39:29.393Z,89.37
2023-04-12T00:41:34.508Z,89.33
2023-04-12T00:43:38.573Z,89.31
2023-04-12T00:45:44.525Z,89.09
2023-04-12T00:47:48.986Z,89.16
2023-04-12T00:49:52.402Z,88.92
2023-04-12T00:51:55.695Z,89.00
2023-04-12T00:54:01.164Z,88.82
2023-04-12T00:56:05.678Z,88.77
2023-04-12T00:58:09.672Z,88.85
2023-04-12T01:00:14.589Z,88.70
2023-04-12T01:02:30.997Z,88.80
2023-04-12T01:04:38.139Z,88.52
2023-04-12T01:06:56.059Z,88.31
2023-04-12T01:09:08.408Z,88.30
2023-04-12T01:11:19.966Z,88.32
2023-04-12T01:13:30.797Z,88.30
2023-04-12T01:15:59.911Z,88.40
2023-04-12T01:18:09.866Z,88.19
2023-04-12T01:20:20.049Z,87.90
2023-04-12T01:22:38.485Z,88.06
2023-04-12T01:24:52.989Z,88.02
2023-04-12T01:27:00.831Z,87.94
2023-04-12T01:29:10.906Z,87.89
2023-04-12T01:31:15.583Z,87.88
2023-04-12T01:33:20.082Z,88.09
2023-04-12T01:35:29.255Z,87.93
2023-04-12T01:37:33.090Z,87.99
2023-04-12T01:39:40.269Z,87.95
2023-04-12T01:41:45.632Z,87.97
2023-04-12T01:43:49.590Z,87.95
2023-04-12T01:45:54.350Z,87.82
2023-04-12T01:47:58.274Z,87.78
2023-04-12T01:50:13.816Z,87.57
2023-04-12T01:52:22.429Z,87.48
2023-04-12T01:54:29.462Z,87.31
2023-04-12T01:56:40.401Z,87.41
2023-04-12T01:58:45.979Z,87.31
2023-04-12T02:00:52.836Z,87.19
2023-04-12T02:03:00.030Z,87.04
2023-04-12T02:05:05.814Z,87.12
2023-04-12T02:07:09.570Z,86.67
2023-04-12T02:09:13.150Z,86.99
2023-04-12T02:11:16.750Z,86.68
2023-04-12T02:13:20.920Z,86.72
2023-04-12T02:15:24.644Z,86.69
2023-04-12T02:17:29.934Z,86.59
2023-04-12T02:19:35.360Z,86.53
2023-04-12T02:21:43.112Z,86.63
2023-04-12T02:23:47.231Z,86.71
2023-04-12T02:25:50.551Z,86.61
2023-04-12T02:27:55.718Z,86.62
2023-04-12T02:30:00.655Z,86.57
2023-04-12T02:32:04.260Z,86.63
2023-04-12T02:34:08.462Z,86.57
2023-04-12T02:36:16.431Z,86.74
2023-04-12T02:38:22.760Z,86.75
2023-04-12T02:40:27.414Z,86.75
2023-04-12T02:42:32.098Z,86.69
2023-04-12T02:44:36.972Z,86.54
2023-04-12T02:46:49.738Z,86.46
2023-04-12T02:48:54.064Z,86.38
2023-04-12T02:51:02.056Z,86.31
2023-04-12T02:53:09.492Z,86.14
2023-04-12T02:55:13.422Z,86.04
2023-04-12T02:57:17.289Z,86.01
2023-04-12T02:59:23.028Z,86.00
2023-04-12T03:01:46.831Z,85.70
2023-04-12T03:04:06.547Z,85.39
2023-04-12T03:06:19.564Z,85.69
2023-04-12T03:08:24.519Z,85.36
2023-04-12T03:10:31.409Z,85.43
2023-04-12T03:12:39.234Z,85.28
2023-04-12T03:14:56.237Z,85.21
2023-04-12T03:17:02.493Z,85.07
2023-04-12T03:19:06.613Z,85.03
2023-04-12T03:21:10.281Z,84.81
2023-04-12T03:23:17.188Z,84.81
2023-04-12T03:25:27.226Z,84.55
2023-04-12T03:27:37.530Z,84.54
2023-04-12T03:29:40.993Z,84.31
2023-04-12T03:31:44.321Z,84.10
2023-04-12T03:33:47.733Z,84.20
2023-04-12T03:36:00.300Z,83.79
2023-04-12T03:38:06.659Z,83.93
2023-04-12T03:40:11.120Z,83.52
2023-04-12T03:42:31.814Z,83.52
2023-04-12T03:44:38.169Z,83.34
2023-04-12T03:46:47.188Z,83.26
2023-04-12T03:48:52.016Z,83.02
2023-04-12T03:50:59.805Z,82.81
2023-04-12T03:53:06.201Z,82.83
2023-04-12T03:55:12.008Z,82.71
2023-04-12T03:57:16.320Z,82.64
2023-04-12T03:59:27.280Z,82.41
2023-04-12T04:01:31.171Z,82.25
2023-04-12T04:03:35.992Z,82.31
2023-04-12T04:05:52.981Z,82.20
2023-04-12T04:08:00.692Z,81.98
2023-04-12T04:10:06.661Z,82.03
2023-04-12T04:12:13.508Z,81.86
2023-04-12T04:14:21.387Z,81.75
2023-04-12T04:16:26.192Z,81.86
2023-04-12T04:18:30.688Z,81.83
2023-04-12T04:20:34.561Z,81.76
2023-04-12T04:22:38.372Z,81.74
2023-04-12T04:24:41.998Z,81.44
2023-04-12T04:26:45.695Z,81.54
2023-04-12T04:29:09.302Z,81.52
2023-04-12T04:31:18.000Z,81.54
2023-04-12T04:33:27.849Z,81.42
2023-04-12T04:35:40.659Z,81.44
2023-04-12T04:38:04.671Z,81.12
2023-04-12T04:40:11.445Z,81.08
2023-04-12T04:42:15.437Z,80.96
2023-04-12T04:44:36.323Z,80.65
2023-04-12T04:46:45.714Z,80.65
2023-04-12T04:48:51.878Z,80.62
2023-04-12T04:50:55.193Z,80.31
2023-04-12T04:52:59.079Z,80.35
2023-04-12T04:55:08.581Z,79.91
2023-04-12T04:57:17.693Z,80.07
2023-04-12T04:59:22.009Z,79.68
2023-04-12T05:01:28.771Z,79.63
2023-04-12T05:03:37.491Z,79.22
2023-04-12T05:05:42.932Z,79.66
2023-04-12T05:07:47.519Z,79.26
2023-04-12T05:09:54.829Z,79.16
2023-04-12T05:11:58.199Z,78.93
2023-04-12T05:14:02.664Z,78.79
2023-04-12T05:16:08.273Z,78.97
2023-04-12T05:18:11.641Z,78.62
2023-04-12T05:20:15.085Z,78.65
2023-04-12T05:22:22.036Z,78.59
2023-04-12T05:24:25.348Z,78.27
2023-04-12T05:26:28.934Z,78.40
2023-04-12T05:28:34.328Z,77.95
2023-04-12T05:30:40.190Z,78.06
2023-04-12T05:32:46.074Z,77.90
2023-04-12T05:34:53.430Z,77.69
2023-04-12T05:36:59.602Z,77.56
2023-04-12T05:39:08.754Z,77.65
2023-04-12T05:41:13.354Z,77.58
2023-04-12T05:43:17.799Z,77.15
2023-04-12T05:45:22.484Z,77.19
2023-04-12T05:47:25.833Z,77.02
2023-04-12T05:49:32.312Z,76.67
2023-04-12T05:51:41.521Z,76.85
2023-04-12T05:53:53.565Z,76.50
2023-04-12T05:55:58.496Z,76.29
2023-04-12T05:58:02.372Z,76.08
2023-04-12T06:00:13.254Z,76.03
2023-04-12T06:02:20.655Z,75.56
2023-04-12T06:04:29.868Z,75.57
2023-04-12T06:06:38.538Z,75.35
2023-04-12T06:08:42.329Z,75.15
2023-04-12T06:10:45.639Z,75.01
2023-04-12T06:12:51.110Z,74.65
2023-04-12T06:14:57.014Z,74.32
2023-04-12T06:17:00.620Z,74.30
2023-04-12T06:19:05.236Z,73.85
2023-04-12T06:21:09.558Z,73.68
2023-04-12T06:23:12.990Z,73.51
2023-04-12T06:25:17.255Z,73.31
2023-04-12T06:27:22.807Z,72.86
2023-04-12T06:29:27.933Z,72.71
2023-04-12T06:31:31.655Z,72.49
2023-04-12T06:33:36.762Z,72.33
2023-04-12T06:35:43.624Z,72.08
2023-04-12T06:37:48.537Z,71.79
2023-04-12T06:39:52.641Z,71.35
2023-04-12T06:41:57.693Z,71.13
2023-04-12T06:44:01.248Z,70.60
2023-04-12T06:46:06.547Z,70.29
2023-04-12T06:48:09.896Z,70.04
2023-04-12T06:50:13.321Z,69.98
2023-04-12T06:52:16.674Z,69.60
2023-04-12T06:54:19.957Z,69.18
2023-04-12T06:56:23.339Z,68.61
2023-04-12T06:58:26.744Z,68.62
2023-04-12T07:00:30.193Z,68.11
2023-04-12T07:02:35.017Z,67.77
2023-04-12T07:04:38.410Z,67.62
2023-04-12T07:06:42.667Z,67.34
2023-04-12T07:08:45.950Z,67.19
2023-04-12T07:10:54.800Z,66.31
2023-04-12T07:13:03.060Z,66.06
2023-04-12T07:15:07.219Z,65.59
2023-04-12T07:17:10.511Z,65.53
2023-04-12T07:19:16.450Z,65.15
2023-04-12T07:21:19.766Z,64.68
2023-04-12T07:23:23.075Z,63.87
2023-04-12T07:25:26.441Z,64.03
2023-04-12T07:27:29.749Z,64.13
2023-04-12T07:29:33.272Z,63.73
2023-04-12T07:31:36.672Z,63.81
2023-04-12T07:33:42.770Z,63.76
2023-04-12T07:35:47.819Z,63.60
2023-04-12T07:37:51.344Z,63.42
2023-04-12T07:39:54.671Z,63.03
2023-04-12T07:41:57.936Z,62.94
2023-04-12T07:44:01.328Z,62.52
2023-04-12T07:46:08.571Z,62.17
2023-04-12T07:48:12.208Z,61.98
2023-04-12T07:50:15.574Z,61.88
2023-04-12T07:52:20.288Z,61.38
2023-04-12T07:54:23.790Z,61.42
2023-04-12T07:56:27.263Z,61.56
2023-04-12T07:58:30.732Z,61.65
2023-04-12T08:00:34.503Z,61.69
2023-04-12T08:02:38.115Z,61.67
2023-04-12T08:04:44.375Z,61.74
2023-04-12T08:06:47.830Z,61.38
2023-04-12T08:08:52.535Z,61.11
2023-04-12T08:10:55.836Z,60.80
2023-04-12T08:13:00.205Z,60.58
2023-04-12T08:15:03.526Z,60.21
2023-04-12T08:17:06.783Z,60.31
2023-04-12T08:19:10.190Z,60.53
2023-04-12T08:21:13.539Z,60.27
2023-04-12T08:23:16.889Z,60.36
2023-04-12T08:25:22.385Z,60.28
2023-04-12T08:27:25.953Z,60.42
2023-04-12T08:29:29.245Z,60.15
2023-04-12T08:31:33.449Z,60.14
2023-04-12T08:33:36.791Z,60.17
2023-04-12T08:35:41.206Z,60.15
2023-04-12T08:37:44.769Z,60.05
2023-04-12T08:39:48.026Z,60.28
2023-04-12T08:41:55.247Z,60.21
2023-04-12T08:44:00.702Z,60.18
2023-04-12T08:46:04.316Z,60.04
2023-04-12T08:48:07.673Z,59.76
2023-04-12T08:50:14.108Z,59.65
2023-04-12T08:52:17.611Z,59.86
2023-04-12T08:54:20.934Z,59.87
2023-04-12T08:56:25.114Z,59.46
2023-04-12T08:58:31.462Z,59.09
2023-04-12T09:00:35.792Z,59.08
2023-04-12T09:02:39.782Z,58.70
2023-04-12T09:04:49.977Z,58.43
2023-04-12T09:06:53.506Z,58.49
2023-04-12T09:08:58.089Z,58.48
2023-04-12T09:11:01.379Z,58.31
2023-04-12T09:13:05.002Z,58.13
2023-04-12T09:15:13.112Z,57.94
2023-04-12T09:17:24.327Z,58.06
2023-04-12T09:19:32.884Z,57.88
2023-04-12T09:21:37.835Z,57.60
2023-04-12T09:23:41.188Z,57.27
2023-04-12T09:25:48.163Z,57.37
2023-04-12T09:27:54.182Z,57.31
2023-04-12T09:30:10.550Z,57.31
2023-04-12T09:32:13.968Z,57.44
2023-04-12T09:34:17.317Z,57.53
2023-04-12T09:36:20.798Z,56.94
2023-04-12T09:38:24.097Z,56.92
2023-04-12T09:40:27.423Z,56.96
2023-04-12T09:42:33.943Z,56.60
2023-04-12T09:44:38.804Z,56.23
2023-04-12T09:46:53.188Z,56.51
2023-04-12T09:49:00.193Z,56.58
2023-04-12T09:51:04.286Z,56.79
2023-04-12T09:53:18.576Z,56.58
2023-04-12T09:55:24.003Z,56.64
2023-04-12T09:57:27.633Z,56.50
2023-04-12T09:59:34.842Z,56.40
2023-04-12T10:01:40.715Z,56.70
2023-04-12T10:03:46.055Z,56.52
2023-04-12T10:05:49.592Z,56.58
2023-04-12T10:07:55.003Z,56.11
2023-04-12T10:10:00.767Z,56.00
2023-04-12T10:12:05.203Z,55.96
2023-04-12T10:14:09.853Z,55.63
2023-04-12T10:16:15.023Z,55.69
2023-04-12T10:18:20.024Z,55.65
2023-04-12T10:20:28.957Z,55.93
2023-04-12T10:22:33.194Z,55.88
2023-04-12T10:24:37.024Z,56.22
2023-04-12T10:26:43.756Z,56.19
2023-04-12T10:28:48.009Z,56.04
2023-04-12T10:30:53.293Z,55.78
2023-04-12T10:33:17.913Z,56.14
2023-04-12T10:35:21.581Z,56.18
2023-04-12T10:37:59.340Z,56.15
2023-04-12T10:40:04.710Z,56.15
2023-04-12T10:42:25.101Z,56.27
2023-04-12T10:44:28.680Z,56.14
2023-04-12T10:46:54.146Z,56.69
2023-04-12T10:48:58.221Z,56.96
2023-04-12T10:51:17.993Z,57.98
2023-04-12T10:53:26.261Z,58.22
2023-04-12T10:55:32.868Z,58.62
2023-04-12T10:57:44.559Z,59.34
2023-04-12T10:59:57.045Z,59.67
2023-04-12T11:02:12.053Z,60.50
2023-04-12T11:04:20.616Z,61.09
2023-04-12T11:06:48.723Z,61.56
2023-04-12T11:09:20.776Z,61.95
2023-04-12T11:11:24.151Z,62.69
2023-04-12T11:13:27.709Z,63.29
2023-04-12T11:15:34.277Z,63.49
2023-04-12T11:17:38.005Z,64.24
2023-04-12T11:19:42.892Z,64.82
2023-04-12T11:21:46.357Z,65.19
2023-04-12T11:23:50.375Z,65.81
2023-04-12T11:25:55.547Z,66.26
2023-04-12T11:27:58.927Z,66.98
2023-04-12T11:30:04.825Z,67.26
2023-04-12T11:32:13.869Z,67.57
2023-04-12T11:34:18.163Z,68.08
2023-04-12T11:36:21.608Z,68.34
2023-04-12T11:38:25.148Z,68.85
2023-04-12T11:40:28.497Z,69.35
2023-04-12T11:42:34.566Z,69.95
2023-04-12T11:44:54.512Z,70.27
2023-04-12T11:46:59.000Z,70.57
2023-04-12T11:49:02.673Z,71.15
2023-04-12T11:51:20.308Z,71.43
2023-04-12T11:53:28.745Z,71.94
2023-04-12T11:55:32.132Z,72.31
2023-04-12T11:57:37.065Z,72.59
2023-04-12T11:59:41.005Z,73.15
2023-04-12T12:01:44.546Z,73.50
2023-04-12T12:03:49.391Z,74.01
2023-04-12T12:05:53.514Z,74.54
2023-04-12T12:07:58.410Z,74.80
2023-04-12T12:10:03.038Z,75.18
2023-04-12T12:12:06.752Z,75.55
2023-04-12T12:14:11.542Z,75.74
2023-04-12T12:16:15.027Z,75.76
2023-04-12T12:18:18.555Z,76.02
2023-04-12T12:20:22.689Z,76.18
2023-04-12T12:22:26.131Z,76.25
2023-04-12T12:24:29.525Z,76.19
2023-04-12T12:26:32.921Z,76.30
2023-04-12T12:28:38.739Z,76.25
2023-04-12T12:30:43.616Z,76.23
2023-04-12T12:32:47.410Z,76.17
2023-04-12T12:34:55.711Z,76.09
2023-04-12T12:36:59.109Z,76.23
2023-04-12T12:39:08.310Z,76.16
2023-04-12T12:41:19.148Z,76.27
2023-04-12T12:43:22.527Z,76.48
2023-04-12T12:45:27.272Z,76.44
2023-04-12T12:47:32.574Z,76.61
2023-04-12T12:49:35.981Z,76.71
2023-04-12T12:51:39.309Z,76.87
2023-04-12T12:53:42.841Z,77.02
2023-04-12T12:55:46.136Z,77.12
2023-04-12T12:58:05.990Z,77.41
2023-04-12T13:00:12.190Z,77.83
2023-04-12T13:02:18.344Z,78.13
2023-04-12T13:04:23.279Z,78.31
2023-04-12T13:06:28.352Z,78.27
2023-04-12T13:08:35.129Z,78.48
2023-04-12T13:10:38.450Z,78.64
2023-04-12T13:12:41.830Z,78.57
2023-04-12T13:14:45.130Z,78.75
2023-04-12T13:16:49.234Z,78.72
2023-04-12T13:18:52.809Z,78.77
2023-04-12T13:20:57.858Z,78.75
2023-04-12T13:23:01.472Z,78.62
2023-04-12T13:25:04.900Z,78.50
2023-04-12T13:27:08.432Z,78.24
2023-04-12T13:29:11.805Z,78.09
2023-04-12T13:31:15.187Z,77.93
2023-04-12T13:33:21.631Z,77.71
2023-04-12T13:35:25.702Z,77.88
2023-04-12T13:37:30.400Z,77.75
2023-04-12T13:39:34.579Z,77.72
2023-04-12T13:41:37.955Z,77.92
2023-04-12T13:43:42.437Z,77.93
2023-04-12T13:45:46.033Z,78.29
2023-04-12T13:47:49.414Z,78.50
2023-04-12T13:49:52.816Z,78.74
2023-04-12T13:51:57.051Z,79.09
2023-04-12T13:54:01.944Z,79.11
2023-04-12T13:56:05.643Z,79.26
2023-04-12T13:58:09.071Z,79.33
2023-04-12T14:00:13.334Z,79.35
2023-04-12T14:02:16.731Z,79.59
2023-04-12T14:04:20.091Z,79.70
2023-04-12T14:06:23.588Z,79.80
2023-04-12T14:08:27.511Z,79.97
2023-04-12T14:10:32.208Z,80.04
2023-04-12T14:12:35.946Z,80.22
2023-04-12T14:14:39.339Z,80.24
2023-04-12T14:16:42.701Z,80.33
2023-04-12T14:18:46.127Z,80.36
2023-04-12T14:20:52.676Z,80.35
2023-04-12T14:22:56.961Z,80.42
2023-04-12T14:25:00.895Z,80.51
2023-04-12T14:27:05.694Z,80.56
2023-04-12T14:29:09.773Z,80.71
2023-04-12T14:31:14.886Z,80.69
2023-04-12T14:33:19.633Z,80.72
2023-04-12T14:35:23.060Z,80.83
2023-04-12T14:37:26.662Z,80.74
2023-04-12T14:39:30.982Z,80.98
2023-04-12T14:41:34.406Z,80.88
2023-04-12T14:43:39.301Z,80.80
2023-04-12T14:45:42.693Z,81.15
2023-04-12T14:47:46.055Z,81.05
2023-04-12T14:49:49.464Z,81.25
2023-04-12T14:51:52.814Z,81.40
2023-04-12T14:53:56.536Z,81.50
2023-04-12T14:56:02.393Z,81.50
2023-04-12T14:58:06.537Z,81.44
2023-04-12T15:00:15.641Z,81.57
2023-04-12T15:02:21.054Z,81.79
2023-04-12T15:04:26.760Z,81.77
2023-04-12T15:06:33.761Z,81.88
2023-04-12T15:08:41.738Z,81.79
2023-04-12T15:10:45.286Z,81.71
2023-04-12T15:12:48.618Z,81.77
2023-04-12T15:14:53.947Z,81.83
2023-04-12T15:16:58.717Z,82.00
2023-04-12T15:19:07.942Z,81.75
2023-04-12T15:21:14.744Z,82.24
2023-04-12T15:23:18.021Z,82.30
2023-04-12T15:25:22.001Z,82.49
2023-04-12T15:27:25.394Z,82.52
2023-04-12T15:29:28.733Z,82.41
2023-04-12T15:31:32.884Z,82.63
2023-04-12T15:33:37.979Z,82.59
2023-04-12T15:35:41.423Z,82.78
2023-04-12T15:37:45.310Z,82.75
2023-04-12T15:39:48.764Z,82.93
2023-04-12T15:41:52.109Z,82.95
2023-04-12T15:43:55.595Z,82.99
2023-04-12T15:45:59.183Z,83.01
2023-04-12T15:48:02.685Z,83.08
2023-04-12T15:50:09.614Z,83.15
2023-04-12T15:52:13.039Z,83.16
2023-04-12T15:54:16.636Z,83.30
2023-04-12T15:56:24.224Z,83.22
2023-04-12T15:58:28.443Z,83.16
2023-04-12T16:00:31.809Z,83.41
2023-04-12T16:02:35.195Z,83.39
2023-04-12T16:04:39.281Z,83.38
2023-04-12T16:06:44.775Z,83.39
2023-04-12T16:08:49.247Z,83.33
2023-04-12T16:10:52.861Z,83.24
2023-04-12T16:12:57.343Z,83.19
2023-04-12T16:15:00.784Z,83.14
2023-04-12T16:17:04.106Z,83.14
2023-04-12T16:19:08.440Z,83.03
2023-04-12T16:21:16.322Z,82.93
2023-04-12T16:23:21.938Z,82.93
2023-04-12T16:25:27.397Z,82.88
2023-04-12T16:27:30.754Z,82.76
2023-04-12T16:29:34.050Z,82.82
2023-04-12T16:31:38.940Z,82.70
2023-04-12T16:33:44.670Z,82.83
2023-04-12T16:35:48.691Z,82.79
2023-04-12T16:37:52.395Z,82.79
2023-04-12T16:39:58.199Z,82.93
2023-04-12T16:42:02.943Z,83.17
2023-04-12T16:44:06.377Z,83.08
2023-04-12T16:46:10.649Z,83.15
2023-04-12T16:48:14.501Z,83.28
2023-04-12T16:50:18.049Z,83.33
2023-04-12T16:52:21.683Z,83.29
2023-04-12T16:54:25.129Z,83.57
2023-04-12T16:56:30.693Z,83.50
2023-04-12T16:58:34.136Z,83.70
2023-04-12T17:00:38.957Z,83.62
2023-04-12T17:02:42.765Z,83.67
2023-04-12T17:04:46.262Z,83.83
2023-04-12T17:06:49.621Z,83.84
2023-04-12T17:08:52.955Z,83.93
2023-04-12T17:10:56.388Z,83.82
2023-04-12T17:13:02.083Z,83.84
2023-04-12T17:15:06.322Z,83.82
2023-04-12T17:17:09.638Z,83.80
2023-04-12T17:19:13.035Z,83.82
2023-04-12T17:21:17.169Z,84.04
2023-04-12T17:23:20.647Z,84.07
2023-04-12T17:25:26.253Z,84.00
2023-04-12T17:27:34.508Z,84.03
2023-04-12T17:29:39.185Z,84.15
2023-04-12T17:31:42.845Z,84.00
2023-04-12T17:33:46.131Z,84.19
2023-04-12T17:35:49.717Z,84.10
2023-04-12T17:37:53.280Z,84.16
2023-04-12T17:39:57.156Z,84.09
2023-04-12T17:42:01.307Z,84.35
2023-04-12T17:44:04.647Z,84.34
2023-04-12T17:46:09.312Z,84.42
2023-04-12T17:48:14.868Z,84.60
2023-04-12T17:50:18.269Z,84.55
2023-04-12T17:52:21.539Z,84.79
2023-04-12T17:54:24.953Z,84.84
2023-04-12T17:56:30.651Z,84.82
2023-04-12T17:58:34.442Z,84.93
2023-04-12T18:00:37.776Z,84.89
2023-04-12T18:02:44.299Z,84.92
2023-04-12T18:04:48.496Z,84.89
2023-04-12T18:06:52.194Z,84.92
2023-04-12T18:08:55.681Z,84.83
2023-04-12T18:11:00.656Z,84.84
2023-04-12T18:13:04.714Z,84.83
2023-04-12T18:15:09.470Z,84.88
2023-04-12T18:17:15.773Z,84.84
2023-04-12T18:19:20.547Z,84.88
2023-04-12T18:21:23.829Z,84.93
2023-04-12T18:23:27.118Z,84.95
2023-04-12T18:25:30.957Z,85.02
2023-04-12T18:27:34.303Z,85.12
2023-04-12T18:29:37.678Z,85.13
2023-04-12T18:31:41.322Z,85.10
2023-04-12T18:33:44.644Z,85.27
2023-04-12T18:35:51.247Z,85.33
2023-04-12T18:37:54.739Z,85.35
2023-04-12T18:39:58.535Z,85.22
2023-04-12T18:42:01.895Z,85.19
2023-04-12T18:44:05.396Z,85.35
2023-04-12T18:46:09.041Z,85.45
2023-04-12T18:48:12.313Z,85.66
2023-04-12T18:50:19.364Z,85.79
2023-04-12T18:52:24.157Z,85.75
2023-04-12T18:54:28.998Z,85.81
2023-04-12T18:56:32.397Z,86.02
2023-04-12T19:00:42.398Z,86.35
2023-04-12T19:02:45.736Z,86.41
2023-04-12T19:04:49.090Z,86.49
2023-04-12T19:06:53.281Z,86.64
2023-04-12T19:08:57.990Z,86.77
2023-04-12T19:11:01.345Z,86.86
2023-04-12T19:13:04.746Z,86.88
2023-04-12T19:15:09.346Z,86.87
2023-04-12T19:17:12.659Z,86.88
2023-04-12T19:19:16.763Z,86.75
2023-04-12T19:21:20.072Z,86.82
2023-04-12T19:23:24.379Z,86.80
2023-04-12T19:25:31.495Z,86.81
2023-04-12T19:27:34.861Z,86.66
2023-04-12T19:29:38.116Z,86.72
2023-04-12T19:31:43.228Z,86.54
2023-04-12T19:33:46.678Z,85.32
2023-04-12T19:35:50.153Z,83.28
2023-04-12T19:37:54.664Z,82.94
2023-04-12T19:39:58.135Z,82.65
2023-04-12T19:42:03.447Z,82.33
2023-04-12T19:44:06.759Z,82.24
2023-04-12T19:46:10.236Z,81.88
2023-04-12T19:48:14.381Z,81.79
2023-04-12T19:50:19.574Z,81.88
2023-04-12T19:52:23.339Z,82.02
2023-04-12T19:54:27.304Z,82.27
2023-04-12T19:56:31.659Z,82.18
2023-04-12T19:58:36.462Z,81.89
2023-04-12T20:00:41.244Z,82.01
2023-04-12T20:02:44.698Z,81.97
2023-04-12T20:04:48.020Z,82.14
2023-04-12T20:06:53.112Z,82.24
2023-04-12T20:08:56.719Z,82.24
2023-04-12T20:11:00.592Z,82.44
2023-04-12T20:13:04.863Z,82.38
2023-04-12T20:15:11.764Z,82.48
2023-04-12T20:17:15.153Z,82.68
2023-04-12T20:19:18.691Z,82.83
2023-04-12T20:21:21.973Z,82.90
2023-04-12T20:23:26.068Z,82.84
2023-04-12T20:25:29.354Z,83.03
2023-04-12T20:27:33.749Z,83.08
2023-04-12T20:29:38.054Z,83.22
2023-04-12T20:31:43.358Z,83.10
2023-04-12T20:33:46.785Z,83.31
2023-04-12T20:35:51.425Z,83.44
2023-04-12T20:37:55.076Z,83.75
2023-04-12T20:39:59.364Z,83.65
2023-04-12T20:42:02.764Z,83.74
2023-04-12T20:44:06.562Z,83.85
2023-04-12T20:46:15.290Z,83.82
2023-04-12T20:48:20.065Z,84.06
2023-04-12T20:50:24.636Z,84.34
2023-04-12T20:52:27.973Z,84.35
2023-04-12T20:54:33.107Z,84.42
2023-04-12T20:56:36.366Z,84.51
2023-04-12T20:58:43.851Z,84.44
2023-04-12T21:00:48.105Z,84.38
2023-04-12T21:02:51.653Z,84.41
2023-04-12T21:04:58.848Z,84.46
2023-04-12T21:07:03.114Z,84.61
2023-04-12T21:09:06.966Z,84.75
2023-04-12T21:11:10.612Z,84.83
2023-04-12T21:13:14.252Z,84.94
2023-04-12T21:15:21.727Z,84.79
2023-04-12T21:17:25.316Z,84.81
2023-04-12T21:19:31.507Z,84.87
2023-04-12T21:21:36.659Z,84.98
2023-04-12T21:23:39.976Z,85.02
2023-04-12T21:25:43.872Z,85.16
2023-04-12T21:27:47.754Z,85.27
2023-04-12T21:29:51.052Z,85.29
2023-04-12T21:31:54.502Z,85.43
2023-04-12T21:33:59.840Z,85.53
2023-04-12T21:36:03.140Z,85.60
2023-04-12T21:38:07.831Z,85.70
2023-04-12T21:40:12.739Z,85.70
2023-04-12T21:42:16.342Z,85.68
2023-04-12T21:44:20.000Z,85.94
2023-04-12T21:46:27.400Z,85.96
2023-04-12T21:48:31.163Z,85.66
2023-04-12T21:50:34.579Z,85.86
2023-04-12T21:52:38.705Z,85.95
2023-04-12T21:54:43.750Z,86.44
2023-04-12T21:56:47.319Z,86.31
2023-04-12T21:58:51.420Z,86.49
2023-04-12T22:00:55.434Z,86.24
2023-04-12T22:02:59.618Z,86.41
2023-04-12T22:05:03.360Z,86.48
2023-04-12T22:07:09.971Z,86.64
2023-04-12T22:09:13.299Z,86.64
2023-04-12T22:11:18.371Z,86.81
2023-04-12T22:13:24.812Z,86.95
2023-04-12T22:15:28.514Z,87.03
2023-04-12T22:17:32.745Z,87.25
2023-04-12T22:19:36.472Z,87.13
2023-04-12T22:21:41.541Z,87.22
2023-04-12T22:23:45.714Z,87.34
2023-04-12T22:25:49.572Z,87.39
2023-04-12T22:27:57.771Z,87.34
2023-04-12T22:30:01.074Z,87.59
2023-04-12T22:32:04.472Z,87.76
2023-04-12T22:34:07.744Z,87.65
2023-04-12T22:36:11.488Z,87.81
2023-04-12T22:38:15.784Z,87.96
2023-04-12T22:40:19.473Z,87.89
2023-04-12T22:42:26.493Z,87.81
2023-04-12T22:44:38.077Z,88.03
2023-04-12T22:46:43.885Z,88.07
2023-04-12T22:48:47.759Z,88.20
2023-04-12T22:50:51.119Z,88.18
2023-04-12T22:52:54.623Z,88.26
2023-04-12T22:54:58.037Z,88.15
2023-04-12T22:57:02.428Z,88.40
2023-04-12T22:59:05.745Z,88.38
2023-04-12T23:01:11.387Z,88.38
2023-04-12T23:03:14.730Z,88.61
2023-04-12T23:05:19.857Z,88.67
2023-04-12T23:07:23.338Z,88.66
2023-04-12T23:09:27.318Z,88.79
2023-04-12T23:11:30.620Z,88.81
2023-04-12T23:13:34.979Z,88.59
2023-04-12T23:15:40.477Z,88.58
2023-04-12T23:17:45.296Z,88.79
2023-04-12T23:19:50.418Z,88.68
2023-04-12T23:21:54.522Z,88.56
2023-04-12T23:23:58.125Z,88.50
2023-04-12T23:26:01.656Z,88.55
2023-04-12T23:28:05.359Z,88.73
2023-04-12T23:30:11.618Z,88.55
2023-04-12T23:32:14.911Z,88.69
2023-04-12T23:34:21.947Z,88.69
2023-04-12T23:36:26.253Z,88.56
2023-04-12T23:38:33.863Z,88.54
2023-04-12T23:40:37.379Z,88.68
2023-04-12T23:42:40.758Z,88.78
2023-04-12T23:44:44.083Z,88.73
2023-04-12T23:46:47.777Z,88.79
2023-04-12T23:48:51.251Z,88.85
2023-04-12T23:50:55.962Z,88.82
2023-04-12T23:52:59.323Z,88.95
2023-04-12T23:55:03.290Z,88.82
2023-04-12T23:57:06.594Z,88.70
2023-04-12T23:59:09.925Z,88.75
